Latest Weather Observations for Mount Isa

IDQ60801

Issued at 8:22 am EST Tuesday 27 October 2020 (issued every 10 minutes, with the page automatically refreshed every 10 minutes)

About weather observations | Map of weather stations | Latest weather observations for QLD | Other Formats
Station Details ID: 029127 Name: MOUNT ISA AERO Lat: -20.68 Lon: 139.49 Height: 340.3 m
Data from the previous 72 hours. | See also: Recent months at Mount Isa
Date/Time
EST
Temp
°C
App
Temp
°C
Dew
Point
°C
Rel
Hum
%
Delta-T
°C
Wind Press
QNH
hPa
Press
MSL
hPa
Rain since
9am
mm
Dir  Spd
km/h
Gust
km/h
Spd
kts
Gust
kts
27/08:00am 22.6 16.0 -2.9 18 11.1 ESE 22 32 12 17 1016.3 1014.3 0.0
27/07:30am 22.4 16.9 -2.3 19 10.8 SE 17 28 9 15 1016.1 1014.1 0.0
27/07:00am 21.1 15.9 -2.7 20 10.2 SE 15 26 8 14 1015.9 1013.8 0.0
27/06:30am 20.8 15.4 -1.1 23 9.7 SE 17 26 9 14 1015.8 1013.7 0.0
27/06:00am 20.7 16.5 -0.6 24 9.5 SE 11 17 6 9 1015.4 1013.3 0.0
27/05:30am 20.6 16.2 0.4 26 9.2 SE 13 19 7 10 1015.0 1012.9 0.0
27/05:00am 20.8 16.6 1.6 28 9.0 SSE 13 17 7 9 1014.4 1012.4 0.0
27/04:30am 20.9 17.1 4.0 33 8.3 SE 13 17 7 9 1014.2 1012.2 0.0
27/04:00am 20.9 17.5 5.7 37 7.7 SSE 13 17 7 9 1013.9 1011.9 0.0
27/03:30am 20.8 16.3 6.0 38 7.5 SE 19 28 10 15 1013.6 1011.6 0.0
27/03:00am 21.4 16.9 6.1 37 7.8 SSE 19 22 10 12 1013.6 1011.6 0.0
27/02:30am 21.8 18.0 5.7 35 8.2 SSE 15 20 8 11 1013.7 1011.7 0.0
27/02:00am 22.4 19.3 5.4 33 8.6 SSE 11 15 6 8 1014.0 1012.0 0.0
27/01:30am 21.5 19.5 7.3 40 7.4 ESE 7 9 4 5 1013.6 1011.6 0.0
27/01:00am 21.8 20.2 8.7 43 7.0 SSE 7 9 4 5 1014.2 1012.2 0.0
27/12:30am 21.2 21.0 9.1 46 6.5 CALM 0 0 0 0 1014.3 1012.3 0.0
27/12:00am 21.3 19.4 9.2 46 6.6 SSE 9 13 5 7 1014.3 1012.3 0.0
 
Date/Time
EST
Temp
°C
App
Temp
°C
Dew
Point
°C
Rel
Hum
%
Delta-T
°C
Wind Press
QNH
hPa
Press
MSL
hPa
Rain since
9am
mm
Dir  Spd
km/h
Gust
km/h
Spd
kts
Gust
kts
26/11:30pm 21.1 17.5 9.7 48 6.2 SSE 19 26 10 14 1014.4 1012.4 0.0
26/11:00pm 21.5 19.2 10.3 49 6.2 SSW 13 17 7 9 1015.2 1013.1 0.0
26/10:30pm 21.8 19.2 10.6 49 6.2 SSW 15 19 8 10 1015.3 1013.2 0.0
26/10:00pm 21.5 18.5 10.6 50 6.1 SSW 17 24 9 13 1015.3 1013.2 0.0
26/09:30pm 21.7 17.8 10.8 50 6.1 SSW 22 30 12 16 1015.1 1013.0 0.0
26/09:00pm 22.4 19.5 10.9 48 6.5 SSW 17 20 9 11 1015.0 1012.9 0.0
26/08:30pm 22.3 19.0 10.8 48 6.4 SSW 19 28 10 15 1015.0 1012.9 0.0
26/08:00pm 22.2 17.9 10.7 48 6.4 SW 24 33 13 18 1015.1 1013.0 0.0
26/07:30pm 22.2 18.2 10.4 47 6.6 SSW 22 30 12 16 1014.8 1012.7 0.0
26/07:00pm 22.2 17.5 10.7 48 6.4 SSW 26 35 14 19 1014.5 1012.5 0.0
26/06:30pm 22.7 16.8 11.1 48 6.5 SSW 33 43 18 23 1014.4 1012.4 0.0
26/06:00pm 24.1 19.8 10.7 43 7.6 SSW 24 32 13 17 1013.7 1011.7 0.0
26/05:30pm 24.4 18.4 10.7 42 7.7 SSW 33 44 18 24 1013.3 1011.2 0.0
26/05:00pm 27.0 20.0 8.4 31 10.2 SW 35 46 19 25 1012.7 1010.6 0.0
26/04:30pm 27.2 20.5 8.1 30 10.5 SSW 33 43 18 23 1012.6 1010.5 0.0
26/04:00pm 27.8 19.3 7.1 27 11.2 S 41 52 22 28 1012.8 1010.7 0.0
26/03:30pm 28.5 18.7 3.4 20 12.8 S 44 59 24 32 1012.8 1010.7 0.0
26/03:10pm 28.6 20.2 3.5 20 12.8 SSW 37 57 20 31 1012.8 1010.7 0.0
26/03:00pm 29.7 21.9 5.1 21 13.0 SSW 35 46 19 25 1012.7 1010.6 0.0
26/02:30pm 30.1 24.9 5.4 21 13.1 SSW 22 33 12 18 1012.5 1010.4 0.0
26/02:00pm 31.3 28.4 6.4 21 13.6 WNW 11 26 6 14 1012.6 1010.5 0.0
26/01:30pm 30.3 27.6 5.6 21 13.2 SSE 9 17 5 9 1012.5 1010.4 0.0
26/01:00pm 30.4 27.5 6.3 22 13.0 S 11 19 6 10 1012.8 1010.7 0.0
26/12:30pm 28.8 25.6 5.0 22 12.5 SSE 11 24 6 13 1013.5 1011.5 0.0
26/12:00pm 28.4 24.0 4.6 22 12.4 S 17 28 9 15 1013.8 1011.8 0.0
26/11:30am 28.1 23.7 5.0 23 12.1 SSE 17 32 9 17 1014.1 1012.1 0.0
26/11:00am 27.2 23.2 4.9 24 11.6 SE 15 26 8 14 1014.7 1012.6 0.0
26/10:30am 26.7 22.4 5.1 25 11.2 SE 17 26 9 14 1015.2 1013.1 0.0
26/10:00am 25.3 20.9 5.0 27 10.4 SE 17 28 9 15 1015.6 1013.5 0.0
26/09:30am 25.6 20.8 5.8 28 10.3 SE 20 30 11 16 1015.6 1013.5 0.0
26/09:00am 23.6 18.6 4.5 29 9.6 SE 20 28 11 15 1015.8 1013.7 0.0
26/08:30am 23.3 18.2 4.3 29 9.5 SE 20 30 11 16 1015.8 1013.7 0.0
26/08:00am 22.6 17.8 4.6 31 9.0 SE 19 28 10 15 1015.5 1013.4 0.0
26/07:30am 20.9 16.7 4.0 33 8.3 SSE 15 22 8 12 1014.9 1012.8 0.0
26/07:00am 20.7 15.8 4.3 34 8.1 SSE 19 26 10 14 1014.2 1012.2 0.0
26/06:30am 20.2 16.2 4.7 36 7.7 SSE 15 20 8 11 1013.8 1011.8 0.0
26/06:00am 20.4 15.9 4.4 35 7.9 SSE 17 26 9 14 1013.7 1011.7 0.0
26/05:30am 21.0 16.1 4.1 33 8.3 SSE 19 28 10 15 1013.4 1011.3 0.0
26/05:00am 21.4 15.9 4.0 32 8.6 SSE 22 32 12 17 1013.1 1011.0 0.0
26/04:30am 21.8 16.9 3.9 31 8.8 SSE 19 26 10 14 1013.0 1010.9 0.0
26/04:00am 22.1 17.2 4.2 31 8.9 SSE 19 26 10 14 1012.8 1010.7 0.0
26/03:30am 22.3 17.3 4.4 31 8.9 SSE 20 28 11 15 1012.7 1010.6 0.0
26/03:00am 22.5 17.0 4.1 30 9.1 SSE 22 30 12 16 1012.7 1010.6 0.0
26/02:30am 22.9 16.6 3.9 29 9.4 SSE 26 32 14 17 1012.8 1010.7 0.0
26/02:00am 23.2 17.4 4.2 29 9.5 S 24 30 13 16 1013.0 1010.9 0.0
26/01:30am 23.2 18.1 4.2 29 9.5 SSE 20 28 11 15 1013.1 1011.0 0.0
26/01:00am 23.4 18.3 3.9 28 9.7 S 20 26 11 14 1013.5 1011.5 0.0
26/12:30am 23.6 19.4 4.0 28 9.8 SSE 15 24 8 13 1013.7 1011.7 0.0
26/12:00am 24.2 19.4 4.6 28 9.9 SSE 19 26 10 14 1013.5 1011.5 0.0
 
Date/Time
EST
Temp
°C
App
Temp
°C
Dew
Point
°C
Rel
Hum
%
Delta-T
°C
Wind Press
QNH
hPa
Press
MSL
hPa
Rain since
9am
mm
Dir  Spd
km/h
Gust
km/h
Spd
kts
Gust
kts
25/11:30pm 24.4 19.7 5.2 29 9.8 SSE 19 30 10 16 1013.7 1011.7 0.0
25/11:00pm 25.2 20.9 5.4 28 10.2 SSE 17 28 9 15 1013.7 1011.7 0.0
25/10:30pm 25.5 21.8 6.2 29 10.1 SSE 15 19 8 10 1013.8 1011.8 0.0
25/10:00pm 26.0 22.6 6.1 28 10.5 S 13 17 7 9 1013.5 1011.5 0.0
25/09:30pm 26.2 22.1 6.3 28 10.5 S 17 20 9 11 1013.5 1011.5 0.0
25/09:00pm 27.1 23.0 6.0 26 11.2 SSW 17 24 9 13 1013.2 1011.1 0.0
25/08:30pm 27.5 22.9 5.7 25 11.5 SSW 19 22 10 12 1012.7 1010.6 0.0
25/08:00pm 28.1 23.0 6.2 25 11.7 SSW 22 28 12 15 1012.5 1010.4 0.0
25/07:30pm 28.6 24.2 6.7 25 11.8 SSW 19 24 10 13 1012.1 1010.0 0.0
25/07:00pm 28.9 25.0 6.9 25 11.9 SSW 17 22 9 12 1011.7 1009.6 0.0
25/06:30pm 29.6 25.4 7.5 25 12.1 S 19 28 10 15 1011.2 1009.2 0.0
25/06:00pm 30.1 26.2 7.3 24 12.5 S 17 22 9 12 1011.1 1009.1 0.0
25/05:30pm 30.1 26.5 8.5 26 12.1 SSW 17 20 9 11 1010.9 1008.9 0.0
25/05:00pm 30.8 26.9 8.5 25 12.5 SSW 19 26 10 14 1010.9 1008.9 0.0
25/04:30pm 30.9 27.4 8.6 25 12.6 SSW 17 30 9 16 1011.0 1009.0 0.0
25/04:00pm 31.6 27.8 9.2 25 12.8 SW 19 32 10 17 1011.2 1009.2 0.0
25/03:30pm 31.7 29.1 9.3 25 12.8 SSE 13 22 7 12 1011.7 1009.6 0.0
25/03:00pm 31.3 27.6 9.5 26 12.5 SSE 19 26 10 14 1011.9 1009.8 0.0
25/02:30pm 30.5 27.4 8.8 26 12.2 SW 15 24 8 13 1012.4 1010.3 0.0
25/02:00pm 30.0 27.4 9.5 28 11.7 ESE 13 22 7 12 1012.9 1010.8 0.0
25/01:30pm 29.4 26.8 9.5 29 11.3 S 13 20 7 11 1013.4 1011.3 0.0
25/01:00pm 28.3 24.8 8.6 29 11.0 S 17 26 9 14 1014.1 1012.1 0.0
25/12:30pm 28.8 25.9 9.5 30 10.9 ESE 15 22 8 12 1014.4 1012.4 0.0
25/12:00pm 27.5 24.1 9.3 32 10.2 SSE 17 26 9 14 1014.8 1012.7 0.0
25/11:30am 27.4 23.5 9.3 32 10.1 S 20 30 11 16 1015.4 1013.3 0.0
25/11:00am 26.4 22.7 9.3 34 9.5 S 19 28 10 15 1016.0 1013.9 0.0
25/10:30am 26.1 21.3 9.0 34 9.5 S 24 39 13 21 1016.3 1014.3 0.0
25/10:00am 25.2 20.8 9.1 36 8.9 SSE 22 30 12 16 1016.2 1014.2 0.0
25/09:30am 24.9 20.8 10.0 39 8.3 SSE 22 30 12 16 1016.1 1014.1 0.0
25/09:00am 23.6 18.7 9.9 42 7.6 SSE 26 35 14 19 1015.8 1013.7 0.0
25/08:30am 22.9 17.6 9.7 43 7.3 SSE 28 35 15 19 1015.6 1013.5 0.0
25/08:00am 22.0 17.3 10.5 48 6.4 SSE 26 35 14 19 1015.6 1013.5 0.0
25/07:30am 21.3 16.1 10.2 49 6.1 SSE 28 35 15 19 1015.3 1013.2 0.0
25/07:00am 20.6 17.2 10.4 52 5.6 S 19 24 10 13 1015.2 1013.1 0.0
25/06:30am 19.9 17.6 10.6 55 5.1 SSE 13 19 7 10 1014.1 1012.1 0.0
25/06:00am 20.1 16.5 10.5 54 5.3 SSE 20 28 11 15 1013.6 1011.6 0.0
25/05:30am 20.3 16.7 10.4 53 5.4 SSE 20 30 11 16 1013.2 1011.1 0.0
25/05:00am 20.7 16.3 10.5 52 5.6 SSE 24 33 13 18 1012.8 1010.7 0.0
25/04:30am 21.3 17.3 10.5 50 6.0 SSE 22 32 12 17 1012.4 1010.3 0.0
25/04:00am 22.0 17.7 10.8 49 6.3 SSE 24 33 13 18 1012.2 1010.1 0.0
25/03:30am 22.8 19.2 10.6 46 6.8 SSE 20 26 11 14 1012.0 1009.9 0.0
25/03:00am 23.2 20.4 11.3 47 6.8 SSE 17 22 9 12 1011.7 1009.6 0.0
25/02:30am 23.9 21.7 10.9 44 7.4 SSE 13 17 7 9 1011.9 1009.8 0.0
25/02:00am 24.7 21.7 10.6 41 8.0 SSE 17 24 9 13 1012.2 1010.1 0.0
25/01:30am 25.1 22.4 11.6 42 7.8 SSE 17 22 9 12 1012.2 1010.1 0.0
25/01:00am 24.7 23.6 13.0 48 6.9 SE 11 13 6 7 1012.4 1010.3 0.0
25/12:30am 25.8 23.8 12.6 44 7.8 SSE 15 19 8 10 1012.6 1010.5 0.0
25/12:00am 26.2 24.3 13.0 44 7.8 SSE 15 22 8 12 1012.6 1010.5 0.0
 
Date/Time
EST
Temp
°C
App
Temp
°C
Dew
Point
°C
Rel
Hum
%
Delta-T
°C
Wind Press
QNH
hPa
Press
MSL
hPa
Rain since
9am
mm
Dir  Spd
km/h
Gust
km/h
Spd
kts
Gust
kts
24/11:30pm 26.3 24.9 13.4 45 7.7 SSE 13 19 7 10 1012.8 1010.7 0.0
24/11:00pm 26.2 25.1 13.0 44 7.8 SE 11 17 6 9 1012.5 1010.4 0.0
24/10:30pm 27.4 25.2 12.2 39 8.9 S 15 22 8 12 1012.1 1010.0 0.0
24/10:00pm 28.2 24.9 11.7 36 9.7 SSW 20 30 11 16 1011.7 1009.6 0.0
24/09:30pm 27.9 26.8 15.2 46 7.8 SSW 15 19 8 10 1011.7 1009.6 0.0
24/09:00pm 27.8 27.1 15.5 47 7.6 SSW 13 13 7 7 1011.3 1009.3 0.0
24/08:30pm 28.6 26.9 14.8 43 8.5 SW 17 19 9 10 1011.1 1009.1 0.0
24/08:00pm 29.0 28.1 15.9 45 8.2 SW 15 17 8 9 1010.7 1008.6 0.0
24/07:30pm 29.0 29.1 16.5 46 7.9 WSW 11 15 6 8 1010.3 1008.2 0.0
24/07:00pm 30.0 29.9 16.1 43 8.8 SW 11 15 6 8 1009.9 1007.8 0.0
24/06:30pm 30.9 30.3 15.7 39 9.6 WSW 13 19 7 10 1009.3 1007.2 0.0
24/06:00pm 31.5 30.5 16.6 40 9.5 SW 17 22 9 12 1008.6 1006.5 0.0
24/05:30pm 32.3 31.1 17.0 40 9.8 SW 19 26 10 14 1008.0 1005.9 0.0
24/05:00pm 33.1 30.5 16.9 38 10.5 SW 26 37 14 20 1007.8 1005.7 0.0
24/04:30pm 33.9 32.6 15.8 33 11.5 WSW 17 22 9 12 1007.9 1005.8 0.0
24/04:00pm 34.1 32.5 16.5 35 11.3 W 20 32 11 17 1008.1 1006.0 0.0
24/03:30pm 34.2 32.8 15.6 32 11.8 WNW 17 32 9 17 1008.4 1006.4 0.0
24/03:00pm 34.5 33.4 17.3 36 11.2 WNW 19 30 10 16 1008.9 1006.8 0.0
24/02:30pm 32.5 31.0 16.8 39 10.1 WNW 20 32 11 17 1009.1 1007.0 0.0
24/02:00pm 33.6 32.7 16.9 37 10.8 W 17 30 9 16 1009.4 1007.3 0.0
24/01:30pm 33.6 33.4 17.7 38 10.4 W 15 26 8 14 1009.9 1007.8 0.0
24/01:00pm 31.6 30.4 17.1 41 9.3 NW 19 30 10 16 1010.2 1008.1 0.0
24/12:30pm 32.6 32.4 18.4 43 9.3 WNW 17 28 9 15 1010.4 1008.3 0.0
24/12:00pm 30.4 30.7 18.8 50 7.6 WNW 15 20 8 11 1010.9 1008.9 0.0
24/11:30am 30.2 30.9 18.9 50 7.4 N 13 26 7 14 1011.2 1009.2 0.0
24/11:00am 28.6 28.7 18.4 54 6.6 N 15 24 8 13 1012.0 1009.9 0.0
24/10:30am 28.3 28.3 18.1 54 6.6 N 15 24 8 13 1012.4 1010.3 0.0
24/10:00am 27.7 27.6 18.7 58 5.8 N 17 22 9 12 1012.8 1010.7 0.0
24/09:30am 25.9 27.0 18.8 65 4.6 NNE 11 17 6 9 1013.1 1011.0 0.0
24/09:00am 24.5 25.6 18.0 67 4.1 NNE 9 15 5 8 1013.0 1010.9 6.4
24/08:30am 23.9 24.7 18.1 70 3.7 NE 11 17 6 9 1013.2 1011.1 6.4

Other formats

Comma delimited format used in spreadsheet applications
http://www.bom.gov.au/fwo/IDQ60801/IDQ60801.94332.axf

JavaScript Object Notation format (JSON) in row-major order
http://www.bom.gov.au/fwo/IDQ60801/IDQ60801.94332.json

Data quality

Most of these data are generated automatically and are frequently updated. Quality checks on data are not normally performed. It is possible for incorrect values to appear. Refer to information at About Latest Weather Observations and please check the disclaimer before using these data.